sensor_id;sensor_type;location;lat;lon;timestamp;pressure;altitude;pressure_sealevel;temperature;humidity
64200;BME280;50516;52.272;5.136;2024-02-26T00:01:26;100016.31;;;6.58;92.53
64200;BME280;50516;52.272;5.136;2024-02-26T00:03:51;100017.09;;;6.49;92.62
64200;BME280;50516;52.272;5.136;2024-02-26T00:06:17;100023.91;;;6.46;92.46
64200;BME280;50516;52.272;5.136;2024-02-26T00:08:43;100022.53;;;6.49;92.82
64200;BME280;50516;52.272;5.136;2024-02-26T00:11:08;100012.25;;;6.61;92.37
64200;BME280;50516;52.272;5.136;2024-02-26T00:13:34;100022.81;;;6.47;92.63
64200;BME280;50516;52.272;5.136;2024-02-26T00:15:59;100023.59;;;6.43;92.63
64200;BME280;50516;52.272;5.136;2024-02-26T00:18:24;100018.41;;;6.41;93.17
64200;BME280;50516;52.272;5.136;2024-02-26T00:20:50;100021.69;;;6.38;93.15
64200;BME280;50516;52.272;5.136;2024-02-26T00:23:15;100033.13;;;6.35;92.82
64200;BME280;50516;52.272;5.136;2024-02-26T00:25:41;100029.53;;;6.29;93.75
64200;BME280;50516;52.272;5.136;2024-02-26T00:28:08;100028.47;;;6.35;93.33
64200;BME280;50516;52.272;5.136;2024-02-26T00:30:34;100028.97;;;6.27;93.61
64200;BME280;50516;52.272;5.136;2024-02-26T00:32:59;100033.25;;;6.13;93.85
64200;BME280;50516;52.272;5.136;2024-02-26T00:35:24;100035.44;;;6.16;93.74
64200;BME280;50516;52.272;5.136;2024-02-26T00:37:50;100029.19;;;6.15;93.68
64200;BME280;50516;52.272;5.136;2024-02-26T00:40:15;100036.88;;;6.24;93.51
64200;BME280;50516;52.272;5.136;2024-02-26T00:42:40;100034.84;;;6.09;94.29
64200;BME280;50516;52.272;5.136;2024-02-26T00:45:11;100039.00;;;6.16;93.99
64200;BME280;50516;52.272;5.136;2024-02-26T00:47:36;100032.94;;;6.04;94.19
64200;BME280;50516;52.272;5.136;2024-02-26T00:50:01;100038.31;;;5.99;94.67
64200;BME280;50516;52.272;5.136;2024-02-26T00:52:27;100036.63;;;5.93;94.88
64200;BME280;50516;52.272;5.136;2024-02-26T00:54:52;100046.84;;;6.08;94.72
64200;BME280;50516;52.272;5.136;2024-02-26T00:57:18;100030.06;;;5.89;94.74
64200;BME280;50516;52.272;5.136;2024-02-26T00:59:43;100038.78;;;5.91;94.90
64200;BME280;50516;52.272;5.136;2024-02-26T01:02:08;100037.94;;;5.85;95.34
64200;BME280;50516;52.272;5.136;2024-02-26T01:04:33;100034.47;;;5.95;95.01
64200;BME280;50516;52.272;5.136;2024-02-26T01:06:59;100029.25;;;5.88;95.72
64200;BME280;50516;52.272;5.136;2024-02-26T01:09:24;100042.09;;;5.93;95.30
64200;BME280;50516;52.272;5.136;2024-02-26T01:11:50;100039.56;;;5.86;95.28
64200;BME280;50516;52.272;5.136;2024-02-26T01:14:15;100046.88;;;5.80;95.64
64200;BME280;50516;52.272;5.136;2024-02-26T01:16:41;100045.06;;;5.91;95.61
64200;BME280;50516;52.272;5.136;2024-02-26T01:19:06;100040.97;;;5.94;95.41
64200;BME280;50516;52.272;5.136;2024-02-26T01:21:31;100035.19;;;5.80;95.83
64200;BME280;50516;52.272;5.136;2024-02-26T01:23:57;100047.84;;;5.64;96.75
64200;BME280;50516;52.272;5.136;2024-02-26T01:26:22;100044.38;;;5.74;97.22
64200;BME280;50516;52.272;5.136;2024-02-26T01:28:48;100046.09;;;5.85;96.58
64200;BME280;50516;52.272;5.136;2024-02-26T01:31:13;100042.25;;;5.81;96.47
64200;BME280;50516;52.272;5.136;2024-02-26T01:33:38;100043.34;;;5.80;96.66
64200;BME280;50516;52.272;5.136;2024-02-26T01:36:04;100046.09;;;5.85;96.58
64200;BME280;50516;52.272;5.136;2024-02-26T01:38:29;100050.88;;;5.67;96.97
64200;BME280;50516;52.272;5.136;2024-02-26T01:40:54;100046.81;;;5.70;96.93
64200;BME280;50516;52.272;5.136;2024-02-26T01:43:20;100054.34;;;5.63;97.34
64200;BME280;50516;52.272;5.136;2024-02-26T01:45:45;100043.84;;;5.72;97.03
64200;BME280;50516;52.272;5.136;2024-02-26T01:48:10;100051.56;;;5.53;97.65
64200;BME280;50516;52.272;5.136;2024-02-26T01:50:36;100045.34;;;5.57;97.65
64200;BME280;50516;52.272;5.136;2024-02-26T01:53:03;100045.84;;;5.54;97.33
64200;BME280;50516;52.272;5.136;2024-02-26T01:55:29;100047.38;;;5.72;97.40
64200;BME280;50516;52.272;5.136;2024-02-26T01:57:54;100040.78;;;5.68;96.96
64200;BME280;50516;52.272;5.136;2024-02-26T02:00:21;100048.56;;;5.54;97.36
64200;BME280;50516;52.272;5.136;2024-02-26T02:02:47;100050.66;;;5.47;97.88
64200;BME280;50516;52.272;5.136;2024-02-26T02:05:15;100049.81;;;5.41;97.97
64200;BME280;50516;52.272;5.136;2024-02-26T02:07:43;100052.88;;;5.50;97.90
64200;BME280;50516;52.272;5.136;2024-02-26T02:10:08;100057.22;;;5.46;98.09
64200;BME280;50516;52.272;5.136;2024-02-26T02:12:35;100053.19;;;5.54;98.21
64200;BME280;50516;52.272;5.136;2024-02-26T02:15:01;100049.94;;;5.57;97.81
64200;BME280;50516;52.272;5.136;2024-02-26T02:17:27;100062.50;;;5.58;97.62
64200;BME280;50516;52.272;5.136;2024-02-26T02:19:53;100059.22;;;5.56;98.00
64200;BME280;50516;52.272;5.136;2024-02-26T02:22:18;100059.00;;;5.62;97.30
64200;BME280;50516;52.272;5.136;2024-02-26T02:24:44;100065.75;;;5.60;97.21
64200;BME280;50516;52.272;5.136;2024-02-26T02:27:09;100073.47;;;5.68;97.20
64200;BME280;50516;52.272;5.136;2024-02-26T02:29:35;100066.38;;;5.67;96.92
64200;BME280;50516;52.272;5.136;2024-02-26T02:32:01;100075.38;;;5.67;97.24
64200;BME280;50516;52.272;5.136;2024-02-26T02:34:28;100075.06;;;5.64;96.97
64200;BME280;50516;52.272;5.136;2024-02-26T02:36:54;100071.13;;;5.49;97.47
64200;BME280;50516;52.272;5.136;2024-02-26T02:39:20;100075.16;;;5.47;97.42
64200;BME280;50516;52.272;5.136;2024-02-26T02:41:46;100077.94;;;5.52;97.76
64200;BME280;50516;52.272;5.136;2024-02-26T02:44:11;100073.97;;;5.65;97.44
64200;BME280;50516;52.272;5.136;2024-02-26T02:46:37;100077.91;;;5.47;97.60
64200;BME280;50516;52.272;5.136;2024-02-26T02:49:02;100078.19;;;5.51;98.00
64200;BME280;50516;52.272;5.136;2024-02-26T02:51:27;100080.75;;;5.57;97.63
64200;BME280;50516;52.272;5.136;2024-02-26T02:53:53;100088.78;;;5.47;98.06
64200;BME280;50516;52.272;5.136;2024-02-26T02:56:18;100081.50;;;5.53;98.31
64200;BME280;50516;52.272;5.136;2024-02-26T02:58:43;100088.03;;;5.52;98.09
64200;BME280;50516;52.272;5.136;2024-02-26T03:01:09;100087.72;;;5.48;98.25
64200;BME280;50516;52.272;5.136;2024-02-26T03:03:34;100095.88;;;5.48;98.43
64200;BME280;50516;52.272;5.136;2024-02-26T03:06:02;100088.91;;;5.57;98.22
64200;BME280;50516;52.272;5.136;2024-02-26T03:08:27;100092.44;;;5.58;98.03
64200;BME280;50516;52.272;5.136;2024-02-26T03:10:52;100094.75;;;5.44;98.31
64200;BME280;50516;52.272;5.136;2024-02-26T03:13:18;100097.34;;;5.56;97.98
64200;BME280;50516;52.272;5.136;2024-02-26T03:15:43;100097.06;;;5.57;98.10
64200;BME280;50516;52.272;5.136;2024-02-26T03:18:08;100109.09;;;5.61;98.31
64200;BME280;50516;52.272;5.136;2024-02-26T03:20:34;100111.06;;;5.44;98.79
64200;BME280;50516;52.272;5.136;2024-02-26T03:22:59;100109.03;;;5.56;98.59
64200;BME280;50516;52.272;5.136;2024-02-26T03:25:24;100122.94;;;5.60;98.04
64200;BME280;50516;52.272;5.136;2024-02-26T03:27:50;100120.19;;;5.55;98.22
64200;BME280;50516;52.272;5.136;2024-02-26T03:30:15;100125.41;;;5.61;98.17
64200;BME280;50516;52.272;5.136;2024-02-26T03:32:41;100125.59;;;5.49;97.90
64200;BME280;50516;52.272;5.136;2024-02-26T03:35:06;100125.94;;;5.58;98.05
64200;BME280;50516;52.272;5.136;2024-02-26T03:37:32;100131.13;;;5.60;97.92
64200;BME280;50516;52.272;5.136;2024-02-26T03:39:58;100127.84;;;5.58;97.56
64200;BME280;50516;52.272;5.136;2024-02-26T03:42:23;100137.28;;;5.50;98.25
64200;BME280;50516;52.272;5.136;2024-02-26T03:44:49;100128.09;;;5.56;97.92
64200;BME280;50516;52.272;5.136;2024-02-26T03:47:14;100134.41;;;5.62;97.90
64200;BME280;50516;52.272;5.136;2024-02-26T03:49:39;100141.66;;;5.51;98.41
64200;BME280;50516;52.272;5.136;2024-02-26T03:52:05;100136.97;;;5.46;98.45
64200;BME280;50516;52.272;5.136;2024-02-26T03:54:30;100140.78;;;5.45;98.63
64200;BME280;50516;52.272;5.136;2024-02-26T03:56:56;100144.38;;;5.51;98.48
64200;BME280;50516;52.272;5.136;2024-02-26T03:59:21;100151.16;;;5.48;98.23
64200;BME280;50516;52.272;5.136;2024-02-26T04:01:49;100153.63;;;5.50;98.71
64200;BME280;50516;52.272;5.136;2024-02-26T04:04:15;100151.53;;;5.57;98.42
64200;BME280;50516;52.272;5.136;2024-02-26T04:06:44;100165.66;;;5.54;98.23
64200;BME280;50516;52.272;5.136;2024-02-26T04:09:09;100146.94;;;5.36;98.97
64200;BME280;50516;52.272;5.136;2024-02-26T04:11:35;100152.38;;;5.36;98.92
64200;BME280;50516;52.272;5.136;2024-02-26T04:14:00;100153.13;;;5.31;99.67
64200;BME280;50516;52.272;5.136;2024-02-26T04:16:26;100154.09;;;5.42;98.70
64200;BME280;50516;52.272;5.136;2024-02-26T04:18:51;100163.78;;;5.33;99.12
64200;BME280;50516;52.272;5.136;2024-02-26T04:21:18;100155.69;;;5.38;99.26
64200;BME280;50516;52.272;5.136;2024-02-26T04:23:43;100158.31;;;5.33;99.01
64200;BME280;50516;52.272;5.136;2024-02-26T04:26:09;100167.34;;;5.33;99.10
64200;BME280;50516;52.272;5.136;2024-02-26T04:28:34;100174.59;;;5.49;98.75
64200;BME280;50516;52.272;5.136;2024-02-26T04:31:00;100170.91;;;5.39;99.28
64200;BME280;50516;52.272;5.136;2024-02-26T04:33:25;100185.69;;;5.43;99.15
64200;BME280;50516;52.272;5.136;2024-02-26T04:35:51;100189.03;;;5.50;98.29
64200;BME280;50516;52.272;5.136;2024-02-26T04:38:16;100189.94;;;5.34;99.08
64200;BME280;50516;52.272;5.136;2024-02-26T04:40:41;100188.97;;;5.45;98.63
64200;BME280;50516;52.272;5.136;2024-02-26T04:43:07;100196.53;;;5.38;98.55
64200;BME280;50516;52.272;5.136;2024-02-26T04:45:32;100194.72;;;5.48;98.81
64200;BME280;50516;52.272;5.136;2024-02-26T04:47:57;100191.75;;;5.50;98.49
64200;BME280;50516;52.272;5.136;2024-02-26T04:50:23;100199.56;;;5.41;99.12
64200;BME280;50516;52.272;5.136;2024-02-26T04:52:48;100204.16;;;5.41;99.04
64200;BME280;50516;52.272;5.136;2024-02-26T04:55:14;100199.41;;;5.31;99.30
64200;BME280;50516;52.272;5.136;2024-02-26T04:57:39;100207.25;;;5.27;99.82
64200;BME280;50516;52.272;5.136;2024-02-26T05:00:05;100202.47;;;5.35;99.60
64200;BME280;50516;52.272;5.136;2024-02-26T05:02:30;100217.84;;;5.24;100.00
64200;BME280;50516;52.272;5.136;2024-02-26T05:04:58;100205.53;;;5.21;100.00
64200;BME280;50516;52.272;5.136;2024-02-26T05:07:23;100193.97;;;5.31;100.00
64200;BME280;50516;52.272;5.136;2024-02-26T05:09:49;100207.66;;;5.36;100.00
64200;BME280;50516;52.272;5.136;2024-02-26T05:12:17;100214.44;;;5.34;100.00
64200;BME280;50516;52.272;5.136;2024-02-26T05:14:42;100210.50;;;5.24;100.00
64200;BME280;50516;52.272;5.136;2024-02-26T05:17:08;100209.97;;;5.27;100.00
64200;BME280;50516;52.272;5.136;2024-02-26T05:19:33;100210.50;;;5.24;100.00
64200;BME280;50516;52.272;5.136;2024-02-26T05:21:58;100221.88;;;5.21;100.00
64200;BME280;50516;52.272;5.136;2024-02-26T05:24:24;100214.94;;;5.30;100.00
64200;BME280;50516;52.272;5.136;2024-02-26T05:26:49;100224.16;;;5.29;100.00
64200;BME280;50516;52.272;5.136;2024-02-26T05:29:14;100214.88;;;5.25;100.00
64200;BME280;50516;52.272;5.136;2024-02-26T05:31:42;100222.38;;;5.18;100.00
64200;BME280;50516;52.272;5.136;2024-02-26T05:34:07;100215.31;;;5.17;100.00
64200;BME280;50516;52.272;5.136;2024-02-26T05:36:33;100226.81;;;5.24;100.00
64200;BME280;50516;52.272;5.136;2024-02-26T05:38:59;100228.66;;;5.19;100.00
64200;BME280;50516;52.272;5.136;2024-02-26T05:41:25;100237.34;;;5.38;100.00
64200;BME280;50516;52.272;5.136;2024-02-26T05:43:52;100241.34;;;5.30;100.00
64200;BME280;50516;52.272;5.136;2024-02-26T05:46:18;100237.19;;;5.27;100.00
64200;BME280;50516;52.272;5.136;2024-02-26T05:48:44;100235.72;;;5.20;100.00
64200;BME280;50516;52.272;5.136;2024-02-26T05:51:09;100240.69;;;5.23;100.00
64200;BME280;50516;52.272;5.136;2024-02-26T05:53:35;100247.72;;;5.19;100.00
64200;BME280;50516;52.272;5.136;2024-02-26T05:56:00;100252.00;;;5.15;100.00
64200;BME280;50516;52.272;5.136;2024-02-26T05:58:25;100258.84;;;5.17;100.00
64200;BME280;50516;52.272;5.136;2024-02-26T06:00:51;100257.50;;;5.20;100.00
64200;BME280;50516;52.272;5.136;2024-02-26T06:03:16;100276.25;;;5.16;100.00
64200;BME280;50516;52.272;5.136;2024-02-26T06:05:42;100266.59;;;5.25;100.00
64200;BME280;50516;52.272;5.136;2024-02-26T06:08:08;100270.56;;;5.18;100.00
64200;BME280;50516;52.272;5.136;2024-02-26T06:10:33;100271.28;;;5.13;100.00
64200;BME280;50516;52.272;5.136;2024-02-26T06:12:58;100261.81;;;5.16;100.00
64200;BME280;50516;52.272;5.136;2024-02-26T06:15:24;100274.59;;;5.15;100.00
64200;BME280;50516;52.272;5.136;2024-02-26T06:17:49;100287.38;;;5.15;100.00
64200;BME280;50516;52.272;5.136;2024-02-26T06:20:15;100292.44;;;5.06;100.00
64200;BME280;50516;52.272;5.136;2024-02-26T06:22:40;100302.41;;;5.00;100.00
64200;BME280;50516;52.272;5.136;2024-02-26T06:25:07;100299.34;;;4.97;100.00
64200;BME280;50516;52.272;5.136;2024-02-26T06:27:32;100312.53;;;5.05;100.00
64200;BME280;50516;52.272;5.136;2024-02-26T06:29:58;100291.03;;;5.03;100.00
64200;BME280;50516;52.272;5.136;2024-02-26T06:32:23;100309.69;;;4.94;100.00
64200;BME280;50516;52.272;5.136;2024-02-26T06:34:48;100305.84;;;4.96;100.00
64200;BME280;50516;52.272;5.136;2024-02-26T06:37:13;100316.59;;;5.02;100.00
64200;BME280;50516;52.272;5.136;2024-02-26T06:39:39;100305.38;;;4.99;100.00
64200;BME280;50516;52.272;5.136;2024-02-26T06:42:04;100319.38;;;4.90;100.00
64200;BME280;50516;52.272;5.136;2024-02-26T06:44:30;100313.69;;;4.92;100.00
64200;BME280;50516;52.272;5.136;2024-02-26T06:46:58;100323.50;;;4.76;100.00
64200;BME280;50516;52.272;5.136;2024-02-26T06:49:24;100316.91;;;4.89;100.00
64200;BME280;50516;52.272;5.136;2024-02-26T06:51:50;100310.59;;;4.83;100.00
64200;BME280;50516;52.272;5.136;2024-02-26T06:54:15;100312.13;;;4.79;100.00
64200;BME280;50516;52.272;5.136;2024-02-26T06:56:40;100330.59;;;4.77;100.00
64200;BME280;50516;52.272;5.136;2024-02-26T06:59:05;100329.88;;;4.82;100.00
64200;BME280;50516;52.272;5.136;2024-02-26T07:01:31;100334.38;;;4.76;100.00
64200;BME280;50516;52.272;5.136;2024-02-26T07:03:56;100333.31;;;4.77;100.00
64200;BME280;50516;52.272;5.136;2024-02-26T07:06:21;100332.09;;;4.85;100.00
64200;BME280;50516;52.272;5.136;2024-02-26T07:08:47;100350.22;;;4.79;100.00
64200;BME280;50516;52.272;5.136;2024-02-26T07:11:12;100348.81;;;4.77;100.00
64200;BME280;50516;52.272;5.136;2024-02-26T07:13:37;100352.94;;;4.79;100.00
64200;BME280;50516;52.272;5.136;2024-02-26T07:16:03;100369.16;;;4.74;100.00
64200;BME280;50516;52.272;5.136;2024-02-26T07:18:29;100378.06;;;4.69;100.00
64200;BME280;50516;52.272;5.136;2024-02-26T07:20:54;100369.81;;;4.81;100.00
64200;BME280;50516;52.272;5.136;2024-02-26T07:23:20;100376.78;;;5.06;100.00
64200;BME280;50516;52.272;5.136;2024-02-26T07:25:46;100373.75;;;5.02;100.00
64200;BME280;50516;52.272;5.136;2024-02-26T07:28:14;100383.06;;;4.89;100.00
64200;BME280;50516;52.272;5.136;2024-02-26T07:30:39;100378.59;;;4.83;100.00
64200;BME280;50516;52.272;5.136;2024-02-26T07:33:04;100381.56;;;4.82;100.00
64200;BME280;50516;52.272;5.136;2024-02-26T07:35:30;100388.97;;;4.86;100.00
64200;BME280;50516;52.272;5.136;2024-02-26T07:37:55;100390.53;;;4.82;100.00
64200;BME280;50516;52.272;5.136;2024-02-26T07:40:20;100381.38;;;4.88;100.00
64200;BME280;50516;52.272;5.136;2024-02-26T07:42:46;100405.47;;;4.80;100.00
64200;BME280;50516;52.272;5.136;2024-02-26T07:45:11;100407.69;;;5.00;100.00
64200;BME280;50516;52.272;5.136;2024-02-26T07:47:37;100408.22;;;5.14;100.00
64200;BME280;50516;52.272;5.136;2024-02-26T07:50:06;100403.47;;;4.92;100.00
64200;BME280;50516;52.272;5.136;2024-02-26T07:52:32;100410.59;;;4.93;100.00
64200;BME280;50516;52.272;5.136;2024-02-26T07:54:57;100407.41;;;4.84;100.00
64200;BME280;50516;52.272;5.136;2024-02-26T07:57:24;100413.69;;;4.85;100.00
64200;BME280;50516;52.272;5.136;2024-02-26T07:59:49;100413.31;;;4.93;100.00
64200;BME280;50516;52.272;5.136;2024-02-26T08:02:15;100423.25;;;4.87;100.00
64200;BME280;50516;52.272;5.136;2024-02-26T08:04:41;100430.84;;;4.85;100.00
64200;BME280;50516;52.272;5.136;2024-02-26T08:07:06;100421.94;;;4.90;100.00
64200;BME280;50516;52.272;5.136;2024-02-26T08:09:31;100425.41;;;4.85;100.00
64200;BME280;50516;52.272;5.136;2024-02-26T08:11:56;100436.03;;;4.87;100.00
64200;BME280;50516;52.272;5.136;2024-02-26T08:14:22;100440.69;;;5.03;100.00
64200;BME280;50516;52.272;5.136;2024-02-26T08:16:47;100437.63;;;5.00;100.00
64200;BME280;50516;52.272;5.136;2024-02-26T08:19:14;100446.03;;;4.98;100.00
64200;BME280;50516;52.272;5.136;2024-02-26T08:21:40;100446.28;;;4.97;100.00
64200;BME280;50516;52.272;5.136;2024-02-26T08:24:05;100445.72;;;4.94;100.00
64200;BME280;50516;52.272;5.136;2024-02-26T08:26:31;100444.84;;;4.94;100.00
64200;BME280;50516;52.272;5.136;2024-02-26T08:28:56;100457.72;;;4.99;100.00
64200;BME280;50516;52.272;5.136;2024-02-26T08:31:23;100453.38;;;5.15;100.00
64200;BME280;50516;52.272;5.136;2024-02-26T08:33:48;100450.84;;;5.08;100.00
64200;BME280;50516;52.272;5.136;2024-02-26T08:36:14;100451.00;;;5.18;100.00
64200;BME280;50516;52.272;5.136;2024-02-26T08:38:39;100470.16;;;5.23;100.00
64200;BME280;50516;52.272;5.136;2024-02-26T08:41:04;100464.03;;;5.16;100.00
64200;BME280;50516;52.272;5.136;2024-02-26T08:43:30;100465.78;;;5.22;100.00
64200;BME280;50516;52.272;5.136;2024-02-26T08:45:56;100462.66;;;5.30;100.00
64200;BME280;50516;52.272;5.136;2024-02-26T08:48:22;100459.34;;;5.28;100.00
64200;BME280;50516;52.272;5.136;2024-02-26T08:50:47;100470.72;;;5.25;100.00
64200;BME280;50516;52.272;5.136;2024-02-26T08:53:12;100482.19;;;5.27;100.00
64200;BME280;50516;52.272;5.136;2024-02-26T08:55:37;100487.97;;;5.31;100.00
64200;BME280;50516;52.272;5.136;2024-02-26T08:58:03;100487.22;;;5.36;100.00
64200;BME280;50516;52.272;5.136;2024-02-26T09:00:28;100486.31;;;5.30;100.00
64200;BME280;50516;52.272;5.136;2024-02-26T09:02:54;100495.72;;;5.39;100.00
64200;BME280;50516;52.272;5.136;2024-02-26T09:05:19;100489.47;;;5.39;99.96
64200;BME280;50516;52.272;5.136;2024-02-26T09:07:44;100505.38;;;5.47;99.87
64200;BME280;50516;52.272;5.136;2024-02-26T09:10:10;100504.81;;;5.45;99.31
64200;BME280;50516;52.272;5.136;2024-02-26T09:12:36;100495.81;;;5.61;98.56
64200;BME280;50516;52.272;5.136;2024-02-26T09:15:01;100496.66;;;5.79;98.03
64200;BME280;50516;52.272;5.136;2024-02-26T09:17:26;100498.31;;;5.80;96.94
64200;BME280;50516;52.272;5.136;2024-02-26T09:19:52;100507.53;;;5.79;97.20
64200;BME280;50516;52.272;5.136;2024-02-26T09:22:17;100511.94;;;5.97;96.17
64200;BME280;50516;52.272;5.136;2024-02-26T09:24:42;100513.38;;;5.88;95.73
64200;BME280;50516;52.272;5.136;2024-02-26T09:27:08;100532.69;;;5.86;96.26
64200;BME280;50516;52.272;5.136;2024-02-26T09:29:35;100518.84;;;5.88;96.28
64200;BME280;50516;52.272;5.136;2024-02-26T09:32:00;100534.72;;;6.08;95.63
64200;BME280;50516;52.272;5.136;2024-02-26T09:34:26;100525.69;;;6.07;94.98
64200;BME280;50516;52.272;5.136;2024-02-26T09:36:51;100539.50;;;6.00;95.05
64200;BME280;50516;52.272;5.136;2024-02-26T09:39:16;100535.28;;;6.10;94.73
64200;BME280;50516;52.272;5.136;2024-02-26T09:41:46;100552.56;;;5.98;94.88
64200;BME280;50516;52.272;5.136;2024-02-26T09:44:13;100559.47;;;6.23;95.07
64200;BME280;50516;52.272;5.136;2024-02-26T09:46:40;100550.41;;;6.17;93.79
64200;BME280;50516;52.272;5.136;2024-02-26T09:49:07;100560.56;;;6.22;94.22
64200;BME280;50516;52.272;5.136;2024-02-26T09:51:33;100560.13;;;6.13;94.33
64200;BME280;50516;52.272;5.136;2024-02-26T09:53:59;100557.75;;;6.17;94.07
64200;BME280;50516;52.272;5.136;2024-02-26T09:56:26;100565.25;;;6.27;93.48
64200;BME280;50516;52.272;5.136;2024-02-26T09:58:53;100577.78;;;6.28;93.74
64200;BME280;50516;52.272;5.136;2024-02-26T10:01:20;100572.19;;;6.17;93.79
64200;BME280;50516;52.272;5.136;2024-02-26T10:03:51;100582.88;;;6.19;94.00
64200;BME280;50516;52.272;5.136;2024-02-26T10:06:17;100589.94;;;6.20;94.55
64200;BME280;50516;52.272;5.136;2024-02-26T10:08:43;100583.94;;;6.18;94.96
64200;BME280;50516;52.272;5.136;2024-02-26T10:11:08;100603.50;;;6.15;95.14
64200;BME280;50516;52.272;5.136;2024-02-26T10:13:35;100593.69;;;6.14;95.28
64200;BME280;50516;52.272;5.136;2024-02-26T10:16:01;100603.28;;;5.99;95.80
64200;BME280;50516;52.272;5.136;2024-02-26T10:21:12;100602.84;;;6.08;96.54
64200;BME280;50516;52.272;5.136;2024-02-26T10:23:39;100604.09;;;6.17;97.13
64200;BME280;50516;52.272;5.136;2024-02-26T10:26:04;100616.06;;;6.16;97.49
64200;BME280;50516;52.272;5.136;2024-02-26T10:28:30;100615.50;;;6.14;97.53
64200;BME280;50516;52.272;5.136;2024-02-26T10:30:55;100610.47;;;6.06;97.50
64200;BME280;50516;52.272;5.136;2024-02-26T10:33:20;100622.09;;;6.18;98.49
64200;BME280;50516;52.272;5.136;2024-02-26T10:35:47;100621.09;;;6.24;97.44
64200;BME280;50516;52.272;5.136;2024-02-26T10:38:12;100627.06;;;6.21;96.88
64200;BME280;50516;52.272;5.136;2024-02-26T10:40:38;100637.72;;;6.39;97.57
64200;BME280;50516;52.272;5.136;2024-02-26T10:43:04;100634.47;;;6.43;96.83
64200;BME280;50516;52.272;5.136;2024-02-26T10:45:29;100643.47;;;6.43;96.33
64200;BME280;50516;52.272;5.136;2024-02-26T10:47:54;100638.78;;;6.38;95.57
64200;BME280;50516;52.272;5.136;2024-02-26T10:50:20;100646.16;;;6.38;95.57
64200;BME280;50516;52.272;5.136;2024-02-26T10:52:45;100652.97;;;6.57;95.47
64200;BME280;50516;52.272;5.136;2024-02-26T10:55:17;100659.75;;;6.55;94.45
64200;BME280;50516;52.272;5.136;2024-02-26T10:57:45;100661.91;;;6.53;95.32
64200;BME280;50516;52.272;5.136;2024-02-26T11:00:14;100664.63;;;6.53;95.46
64200;BME280;50516;52.272;5.136;2024-02-26T11:02:40;100663.78;;;6.52;95.27
64200;BME280;50516;52.272;5.136;2024-02-26T11:05:07;100671.09;;;6.47;94.74
64200;BME280;50516;52.272;5.136;2024-02-26T11:07:34;100665.94;;;6.50;94.87
64200;BME280;50516;52.272;5.136;2024-02-26T11:10:01;100670.03;;;6.48;95.31
64200;BME280;50516;52.272;5.136;2024-02-26T11:12:32;100680.44;;;6.51;94.06
64200;BME280;50516;52.272;5.136;2024-02-26T11:14:57;100678.28;;;6.53;94.50
64200;BME280;50516;52.272;5.136;2024-02-26T11:17:26;100685.69;;;6.74;93.97
64200;BME280;50516;52.272;5.136;2024-02-26T11:19:55;100688.13;;;6.93;93.48
64200;BME280;50516;52.272;5.136;2024-02-26T11:22:20;100692.38;;;6.67;92.66
64200;BME280;50516;52.272;5.136;2024-02-26T11:24:47;100692.78;;;6.75;92.94
64200;BME280;50516;52.272;5.136;2024-02-26T11:27:15;100692.22;;;7.12;92.15
64200;BME280;50516;52.272;5.136;2024-02-26T11:29:51;100690.63;;;6.94;91.96
64200;BME280;50516;52.272;5.136;2024-02-26T11:32:17;100695.88;;;7.01;91.90
64200;BME280;50516;52.272;5.136;2024-02-26T11:34:42;100705.09;;;6.78;91.52
64200;BME280;50516;52.272;5.136;2024-02-26T11:37:13;100701.72;;;6.71;91.75
64200;BME280;50516;52.272;5.136;2024-02-26T11:39:43;100698.88;;;7.00;91.38
64200;BME280;50516;52.272;5.136;2024-02-26T11:42:13;100700.00;;;7.04;90.87
64200;BME280;50516;52.272;5.136;2024-02-26T11:44:39;100707.72;;;7.29;90.01
64200;BME280;50516;52.272;5.136;2024-02-26T11:47:13;100704.97;;;7.29;88.90
64200;BME280;50516;52.272;5.136;2024-02-26T11:49:39;100708.28;;;7.09;89.55
64200;BME280;50516;52.272;5.136;2024-02-26T11:52:08;100717.91;;;6.94;89.35
64200;BME280;50516;52.272;5.136;2024-02-26T11:55:00;100715.25;;;7.00;89.02
64200;BME280;50516;52.272;5.136;2024-02-26T12:02:47;100714.38;;;7.16;88.24
64200;BME280;50516;52.272;5.136;2024-02-26T12:05:21;100722.06;;;7.19;87.99
64200;BME280;50516;52.272;5.136;2024-02-26T12:07:59;100723.72;;;7.20;88.08
64200;BME280;50516;52.272;5.136;2024-02-26T12:10:31;100728.28;;;7.59;87.13
64200;BME280;50516;52.272;5.136;2024-02-26T12:13:04;100740.25;;;7.53;86.82
64200;BME280;50516;52.272;5.136;2024-02-26T12:15:42;100749.81;;;7.55;86.64
64200;BME280;50516;52.272;5.136;2024-02-26T12:18:10;100738.88;;;7.33;86.20
64200;BME280;50516;52.272;5.136;2024-02-26T12:20:37;100745.06;;;7.45;86.56
64200;BME280;50516;52.272;5.136;2024-02-26T12:23:03;100744.94;;;7.35;86.37
64200;BME280;50516;52.272;5.136;2024-02-26T12:25:32;100745.44;;;7.32;86.81
64200;BME280;50516;52.272;5.136;2024-02-26T12:27:58;100746.56;;;7.36;86.51
64200;BME280;50516;52.272;5.136;2024-02-26T12:30:24;100748.69;;;7.51;86.05
64200;BME280;50516;52.272;5.136;2024-02-26T12:32:55;100749.63;;;7.62;85.60
64200;BME280;50516;52.272;5.136;2024-02-26T12:35:26;100756.66;;;7.53;85.61
64200;BME280;50516;52.272;5.136;2024-02-26T12:37:53;100755.88;;;7.35;85.68
64200;BME280;50516;52.272;5.136;2024-02-26T12:40:19;100759.28;;;7.25;85.92
64200;BME280;50516;52.272;5.136;2024-02-26T12:42:45;100762.41;;;7.34;86.33
64200;BME280;50516;52.272;5.136;2024-02-26T12:45:11;100756.88;;;7.29;85.62
64200;BME280;50516;52.272;5.136;2024-02-26T12:47:41;100764.25;;;7.50;86.02
64200;BME280;50516;52.272;5.136;2024-02-26T12:50:08;100776.03;;;7.51;85.56
64200;BME280;50516;52.272;5.136;2024-02-26T12:52:37;100782.38;;;7.79;85.26
64200;BME280;50516;52.272;5.136;2024-02-26T12:55:05;100770.66;;;7.83;84.77
64200;BME280;50516;52.272;5.136;2024-02-26T12:57:32;100789.88;;;7.89;84.10
64200;BME280;50516;52.272;5.136;2024-02-26T13:00:02;100787.53;;;7.75;84.10